createdAt,value
2019-02-03T10:02:35.506Z,93339.64
2019-02-03T10:17:38.242Z,93325.32
2019-02-03T10:32:40.832Z,93325.95
2019-02-03T10:47:43.677Z,93301.05
2019-02-03T11:02:46.360Z,93297.88
2019-02-03T11:17:49.014Z,93282.69
2019-02-03T11:33:04.584Z,93272.94
2019-02-03T11:47:58.702Z,93231.76
2019-02-03T12:03:02.411Z,93226.78
2019-02-03T12:18:06.365Z,93220.53
2019-02-03T12:33:09.223Z,93213.63
2019-02-03T12:48:12.648Z,93205.72
2019-02-03T13:03:16.124Z,93215.84
2019-02-03T13:18:19.158Z,93222.02
2019-02-03T13:33:22.087Z,93205.50
2019-02-03T13:48:24.779Z,93216.96
2019-02-03T14:03:27.376Z,93224.78
2019-02-03T14:18:30.768Z,93231.35
2019-02-03T14:33:33.721Z,93250.42
2019-02-03T14:48:37.377Z,93245.67
2019-02-03T15:03:40.799Z,93238.66
2019-02-03T15:18:45.504Z,93216.47
2019-02-03T15:33:48.103Z,93241.77
2019-02-03T15:48:51.190Z,93258.11
2019-02-03T16:03:54.284Z,93271.05
2019-02-03T16:18:56.851Z,93294.34
2019-02-03T16:33:59.859Z,93283.00
2019-02-03T16:49:04.439Z,93281.34
2019-02-03T17:04:07.119Z,93296.72
2019-02-03T17:19:09.816Z,93329.90
2019-02-03T17:34:12.427Z,93353.63
2019-02-03T17:49:16.758Z,93359.89
2019-02-03T18:04:20.495Z,93378.47
2019-02-03T18:19:24.012Z,93395.86
2019-02-03T18:34:26.922Z,93416.68
2019-02-03T18:49:30.482Z,93420.34
2019-02-03T19:04:33.102Z,93451.61
2019-02-03T19:19:36.154Z,93453.89
2019-02-03T19:34:38.738Z,93479.44
2019-02-03T19:49:46.333Z,93502.62
2019-02-03T20:04:46.087Z,93521.13
2019-02-03T20:19:48.938Z,93529.53
2019-02-03T20:34:51.638Z,93538.32
2019-02-03T20:49:54.243Z,93543.27
2019-02-03T21:04:59.255Z,93554.19
2019-02-03T21:20:01.925Z,93569.05
2019-02-03T21:35:07.677Z,93582.23
2019-02-03T21:50:13.925Z,93602.27
2019-02-03T22:05:16.742Z,93607.48
2019-02-03T22:20:21.410Z,93619.50
2019-02-03T22:35:24.171Z,93641.09
2019-02-03T22:50:29.830Z,93639.75
2019-02-03T23:05:32.856Z,93658.13
2019-02-03T23:20:35.451Z,93665.98
2019-02-03T23:35:38.130Z,93670.17
2019-02-03T23:50:40.744Z,93667.21
